• Join FlightAware (Why Join?)
  • Login
  • US Flag 
01:22PM EDT


 

Airport Tracker/Info


-or-


 

Live Flight TrackerFlight Track Log ✈ TAM3273 ✈ 19-May-2013 ✈ SBUL / UDI - SBSP / CGH

Flight Track Log - Related Links

Times and Time Zones

All times are in EDT time to prevent confusion due to time zone crossing. See the TAM3273 flight status page for this flight to view local times or setup timezone preferences in your user account.

Time Position Orientation Groundspeed Altitude Reporting Facility
EDT Latitude Longitude Course Direction KTS MPH feet Rate Location/Type
07:54AM -20.1415 -47.8191 163° South  Level Estimated
07:55AM -20.2382 -47.7875 163° South  Level Estimated
07:56AM -20.3350 -47.7560 163° South  Level Estimated
07:57AM -20.4318 -47.7243 163° South  Level Estimated
07:58AM -20.5285 -47.6927 163° South  Level Estimated
07:59AM -20.6253 -47.6610 163° South  Level Estimated
08:00AM -20.7220 -47.6292 163° South  Level Estimated
08:01AM -20.8188 -47.5975 163° South  Level Estimated
08:02AM -20.9155 -47.5656 163° South  Level Estimated
08:03AM -21.0123 -47.5338 163° South  Level Estimated
08:04AM -21.1090 -47.5019 163° South  Level Estimated
08:05AM -21.2057 -47.4699 163° South  Level Estimated
08:06AM -21.3024 -47.4380 163° South  Level Estimated
08:07AM -21.3991 -47.4059 163° South  Level Estimated
08:08AM -21.4958 -47.3739 163° South  Level Estimated
08:09AM -21.5925 -47.3417 163° South  Level Estimated
08:10AM -21.6892 -47.3096 163° South  Level Estimated
08:11AM -21.7859 -47.2774 163° South  Level Estimated
08:12AM -21.8826 -47.2452 163° South  Level Estimated
08:13AM -21.9792 -47.2129 163° South  Level Estimated
08:14AM -22.0759 -47.1805 163° South  Level Estimated
08:15AM -22.1726 -47.1482 163° South  Level Estimated
08:16AM -22.2692 -47.1157 163° South  Level Estimated
08:17AM -22.3659 -47.0833 163° South  Level Estimated
08:18AM -22.4625 -47.0508 163° South  Level Estimated
08:19AM -22.5592 -47.0182 163° South  Level Estimated
08:20AM -22.6558 -46.9856 163° South  Level Estimated
08:21AM -22.7524 -46.9530 163° South  Level Estimated
08:22AM -22.8490 -46.9203 163° South  Level Estimated
08:23AM -22.9456 -46.8876 163° South  Level Estimated
08:24AM -23.0422 -46.8548 163° South  Level Estimated
08:25AM -23.1388 -46.8220 163° South  Level Estimated
08:26AM -23.2354 -46.7891 163° South  Level Estimated
08:27AM -23.3320 -46.7562 163° South  Level Estimated
08:28AM -23.4286 -46.7232 163° South  Level Estimated
08:29AM -23.5251 -46.6902 163° South  Level Estimated
08:30AM -23.6217 -46.6571 163° South  Level Estimated
08:31AM -23.6267 -46.6554 163° South  Level Estimated
08:32AM -23.6267 -46.6554 114° Southeast  Level Estimated
08:33AM -23.6267 -46.6554 114° Southeast  Level Estimated
08:34AM -23.6267 -46.6554 114° Southeast  Level Estimated
08:35AM -23.6267 -46.6554 114° Southeast  Level Estimated
08:36AM -23.6267 -46.6554 114° Southeast  Level Estimated
08:37AM -23.6267 -46.6554 114° Southeast  Level Estimated
08:38AM -23.6267 -46.6554 114° Southeast  Level Estimated
08:39AM -23.6267 -46.6554 114° Southeast  Level Estimated
08:40AM -23.6267 -46.6554 114° Southeast  Level Estimated
08:41AM -23.6267 -46.6554 114° Southeast  Level Estimated
08:42AM -23.6267 -46.6554 114° Southeast  Level Estimated
08:43AM -23.6267 -46.6554 114° Southeast  Level Estimated
08:44AM -23.6267 -46.6554 114° Southeast  Level Estimated
08:45AM -23.6267 -46.6554 114° Southeast  Level Estimated
08:46AM -23.6267 -46.6554 114° Southeast  Level Estimated